createdAt,value
2023-04-10T00:01:36.074Z,5.80
2023-04-10T00:04:04.911Z,5.79
2023-04-10T00:06:33.378Z,5.75
2023-04-10T00:09:01.761Z,5.80
2023-04-10T00:11:30.320Z,5.67
2023-04-10T00:13:59.902Z,5.61
2023-04-10T00:16:42.408Z,5.57
2023-04-10T00:19:11.274Z,5.61
2023-04-10T00:21:39.461Z,5.63
2023-04-10T00:24:07.764Z,5.64
2023-04-10T00:26:36.204Z,5.57
2023-04-10T00:29:06.475Z,5.53
2023-04-10T00:31:52.014Z,5.51
2023-04-10T00:34:20.651Z,5.53
2023-04-10T00:36:48.944Z,5.56
2023-04-10T00:39:17.152Z,5.57
2023-04-10T00:41:45.581Z,5.56
2023-04-10T00:44:15.241Z,5.58
2023-04-10T00:46:43.714Z,5.60
2023-04-10T00:49:12.103Z,5.70
2023-04-10T00:51:41.923Z,5.78
2023-04-10T00:54:10.645Z,5.77
2023-04-10T00:56:39.004Z,5.79
2023-04-10T00:59:07.529Z,5.85
2023-04-10T01:01:37.209Z,5.75
2023-04-10T01:04:05.804Z,5.73
2023-04-10T01:06:42.176Z,5.74
2023-04-10T01:09:15.272Z,5.76
2023-04-10T01:11:47.588Z,5.71
2023-04-10T01:14:20.724Z,5.73
2023-04-10T01:16:54.666Z,5.73
2023-04-10T01:19:28.736Z,5.66
2023-04-10T01:21:57.639Z,5.62
2023-04-10T01:24:36.630Z,5.63
2023-04-10T01:27:11.185Z,5.68
2023-04-10T01:29:45.420Z,5.65
2023-04-10T01:32:14.803Z,5.73
2023-04-10T01:34:46.079Z,5.80
2023-04-10T01:37:16.925Z,5.85
2023-04-10T01:39:48.695Z,5.88
2023-04-10T01:42:17.607Z,5.90
2023-04-10T01:44:48.224Z,5.87
2023-04-10T01:47:24.270Z,5.85
2023-04-10T01:49:54.079Z,5.86
2023-04-10T01:52:23.925Z,5.86
2023-04-10T01:54:53.163Z,5.96
2023-04-10T01:57:21.802Z,5.98
2023-04-10T01:59:51.815Z,5.94
2023-04-10T02:02:20.328Z,5.93
2023-04-10T02:04:51.742Z,5.87
2023-04-10T02:07:21.714Z,5.85
2023-04-10T02:09:55.684Z,5.90
2023-04-10T02:12:27.594Z,5.88
2023-04-10T02:15:00.367Z,5.85
2023-04-10T02:17:29.566Z,5.80
2023-04-10T02:19:59.315Z,5.75
2023-04-10T02:22:28.523Z,5.68
2023-04-10T02:24:58.453Z,5.83
2023-04-10T02:27:30.496Z,5.83
2023-04-10T02:30:00.486Z,5.88
2023-04-10T02:32:28.703Z,5.80
2023-04-10T02:34:57.372Z,5.81
2023-04-10T02:37:26.208Z,5.75
2023-04-10T02:39:54.928Z,5.80
2023-04-10T02:42:23.238Z,5.88
2023-04-10T02:44:51.526Z,5.81
2023-04-10T02:47:21.169Z,5.84
2023-04-10T02:49:52.751Z,5.82
2023-04-10T02:52:20.988Z,5.83
2023-04-10T02:54:49.182Z,5.82
2023-04-10T02:57:17.543Z,5.82
2023-04-10T02:59:46.017Z,5.77
2023-04-10T03:02:14.433Z,5.73
2023-04-10T03:04:44.233Z,5.77
2023-04-10T03:07:12.481Z,5.70
2023-04-10T03:09:40.636Z,5.68
2023-04-10T03:12:08.876Z,5.61
2023-04-10T03:14:37.214Z,5.65
2023-04-10T03:17:05.496Z,5.65
2023-04-10T03:19:33.823Z,5.63
2023-04-10T03:22:03.581Z,5.63
2023-04-10T03:24:31.734Z,5.67
2023-04-10T03:27:00.081Z,5.65
2023-04-10T03:29:28.434Z,5.63
2023-04-10T03:31:57.336Z,5.55
2023-04-10T03:34:25.842Z,5.61
2023-04-10T03:36:54.024Z,5.65
2023-04-10T03:39:23.721Z,5.62
2023-04-10T03:41:51.960Z,5.67
2023-04-10T03:44:20.298Z,5.65
2023-04-10T03:46:48.483Z,5.66
2023-04-10T03:49:17.005Z,5.68
2023-04-10T03:51:45.206Z,5.66
2023-04-10T03:54:13.358Z,5.61
2023-04-10T03:56:43.221Z,5.58
2023-04-10T03:59:11.637Z,5.57
2023-04-10T04:01:40.498Z,5.58
2023-04-10T04:04:08.870Z,5.57
2023-04-10T04:06:37.134Z,5.49
2023-04-10T04:09:05.571Z,5.40
2023-04-10T04:11:33.725Z,5.41
2023-04-10T04:14:03.312Z,5.41
2023-04-10T04:16:31.568Z,5.37
2023-04-10T04:18:59.833Z,5.33
2023-04-10T04:21:28.088Z,5.31
2023-04-10T04:23:56.818Z,5.24
2023-04-10T04:26:26.198Z,5.22
2023-04-10T04:28:54.543Z,5.20
2023-04-10T04:31:24.344Z,5.25
2023-04-10T04:33:53.039Z,5.22
2023-04-10T04:36:21.490Z,5.15
2023-04-10T04:38:49.817Z,5.18
2023-04-10T04:41:20.394Z,5.24
2023-04-10T04:43:49.543Z,5.22
2023-04-10T04:46:17.826Z,5.19
2023-04-10T04:48:47.574Z,5.16
2023-04-10T04:51:15.919Z,5.15
2023-04-10T04:53:44.147Z,5.20
2023-04-10T04:56:12.549Z,5.17
2023-04-10T04:58:40.975Z,5.14
2023-04-10T05:01:09.636Z,5.13
2023-04-10T05:03:38.233Z,5.12
2023-04-10T05:06:08.518Z,5.29
2023-04-10T05:08:37.076Z,5.17
2023-04-10T05:11:05.867Z,5.13
2023-04-10T05:13:34.174Z,5.07
2023-04-10T05:16:02.460Z,5.03
2023-04-10T05:18:30.830Z,5.04
2023-04-10T05:20:59.195Z,5.06
2023-04-10T05:23:29.201Z,5.07
2023-04-10T05:25:58.507Z,5.14
2023-04-10T05:28:27.173Z,5.15
2023-04-10T05:30:56.135Z,5.12
2023-04-10T05:33:24.592Z,5.07
2023-04-10T05:35:54.258Z,5.03
2023-04-10T05:38:24.650Z,5.06
2023-04-10T05:40:55.181Z,5.13
2023-04-10T05:43:23.975Z,5.20
2023-04-10T05:45:52.459Z,5.26
2023-04-10T05:48:21.043Z,5.34
2023-04-10T05:50:49.365Z,5.41
2023-04-10T05:53:21.037Z,5.47
2023-04-10T05:55:51.521Z,5.55
2023-04-10T05:58:21.241Z,5.65
2023-04-10T06:00:49.428Z,5.73
2023-04-10T06:03:17.778Z,5.78
2023-04-10T06:05:46.278Z,5.86
2023-04-10T06:08:14.693Z,6.06
2023-04-10T06:10:42.984Z,6.22
2023-04-10T06:13:11.472Z,6.46
2023-04-10T06:15:41.172Z,6.70
2023-04-10T06:18:09.433Z,7.00
2023-04-10T06:20:37.641Z,7.35
2023-04-10T06:23:06.916Z,7.65
2023-04-10T06:25:35.201Z,7.86
2023-04-10T06:28:03.533Z,7.87
2023-04-10T06:30:33.838Z,7.99
2023-04-10T06:33:03.621Z,8.13
2023-04-10T06:35:32.765Z,8.24
2023-04-10T06:38:01.353Z,8.41
2023-04-10T06:40:30.905Z,8.57
2023-04-10T06:42:59.203Z,8.68
2023-04-10T06:45:27.602Z,8.80
2023-04-10T06:47:56.317Z,8.99
2023-04-10T06:50:26.309Z,9.08
2023-04-10T06:52:56.001Z,9.33
2023-04-10T06:55:24.196Z,9.54
2023-04-10T06:57:52.365Z,9.87
2023-04-10T07:00:20.849Z,10.08
2023-04-10T07:02:49.454Z,10.32
2023-04-10T07:05:17.738Z,10.77
2023-04-10T07:07:47.504Z,11.20
2023-04-10T07:10:15.757Z,11.30
2023-04-10T07:12:44.484Z,11.62
2023-04-10T07:15:13.363Z,11.93
2023-04-10T07:17:41.636Z,12.42
2023-04-10T07:20:10.428Z,12.57
2023-04-10T07:22:39.112Z,12.85
2023-04-10T07:25:09.590Z,13.11
2023-04-10T07:27:37.939Z,13.25
2023-04-10T07:30:06.705Z,13.65
2023-04-10T07:32:35.301Z,13.77
2023-04-10T07:35:03.858Z,13.97
2023-04-10T07:37:32.040Z,14.41
2023-04-10T07:40:00.505Z,14.05
2023-04-10T07:42:30.145Z,13.95
2023-04-10T07:44:58.320Z,14.20
2023-04-10T07:47:26.591Z,14.07
2023-04-10T07:49:54.853Z,14.73
2023-04-10T07:52:23.447Z,15.19
2023-04-10T07:54:52.154Z,15.44
2023-04-10T07:57:20.347Z,14.69
2023-04-10T07:59:49.950Z,14.46
2023-04-10T08:02:18.253Z,15.35
2023-04-10T08:04:46.784Z,15.49
2023-04-10T08:07:15.358Z,16.19
2023-04-10T08:09:43.540Z,15.57
2023-04-10T08:12:11.813Z,15.13
2023-04-10T08:14:40.084Z,14.74
2023-04-10T08:17:14.446Z,15.44
2023-04-10T08:19:43.572Z,16.73
2023-04-10T08:22:12.090Z,17.95
2023-04-10T08:24:40.603Z,17.90
2023-04-10T08:27:08.914Z,18.18
2023-04-10T08:29:37.325Z,19.43
2023-04-10T08:32:05.916Z,18.91
2023-04-10T08:34:35.549Z,17.60
2023-04-10T08:37:06.291Z,18.18
2023-04-10T08:39:35.641Z,18.92
2023-04-10T08:42:04.292Z,18.62
2023-04-10T08:44:32.752Z,17.90
2023-04-10T08:47:01.410Z,18.04
2023-04-10T08:49:32.725Z,16.79
2023-04-10T08:52:03.115Z,17.34
2023-04-10T08:54:33.895Z,18.40
2023-04-10T08:57:02.425Z,17.80
2023-04-10T08:59:31.381Z,19.25
2023-04-10T09:02:08.708Z,19.02
2023-04-10T09:04:37.820Z,20.25
2023-04-10T09:07:07.982Z,20.85
2023-04-10T09:09:36.526Z,20.93
2023-04-10T09:12:06.752Z,20.28
2023-04-10T09:14:36.339Z,19.78
2023-04-10T09:17:15.760Z,19.76
2023-04-10T09:19:44.963Z,18.67
2023-04-10T09:22:14.824Z,18.90
2023-04-10T09:24:43.589Z,18.74
2023-04-10T09:27:12.262Z,19.85
2023-04-10T09:29:42.453Z,19.34
2023-04-10T09:32:11.130Z,19.30
2023-04-10T09:34:56.844Z,19.17
2023-04-10T09:37:33.604Z,20.38
2023-04-10T09:40:02.209Z,19.33
2023-04-10T09:42:34.701Z,20.07
2023-04-10T09:45:04.099Z,19.07
2023-04-10T09:47:33.137Z,19.10
2023-04-10T09:50:01.859Z,18.59
2023-04-10T09:52:31.130Z,18.47
2023-04-10T09:55:01.914Z,18.38
2023-04-10T09:57:31.445Z,18.27
2023-04-10T10:00:00.790Z,18.22
2023-04-10T10:02:31.338Z,18.52
2023-04-10T10:05:01.338Z,18.15
2023-04-10T10:07:30.998Z,18.74
2023-04-10T10:10:01.665Z,19.24
2023-04-10T10:12:35.329Z,19.23
2023-04-10T10:15:08.812Z,18.66
2023-04-10T10:17:43.860Z,19.22
2023-04-10T10:20:14.355Z,19.31
2023-04-10T10:22:56.246Z,19.71
2023-04-10T10:25:26.605Z,19.93
2023-04-10T10:27:56.605Z,20.59
2023-04-10T10:30:30.231Z,19.69
2023-04-10T10:32:59.943Z,19.10
2023-04-10T10:35:29.942Z,17.37
2023-04-10T10:37:59.566Z,17.23
2023-04-10T10:40:31.042Z,17.89
2023-04-10T10:43:06.529Z,18.73
2023-04-10T10:45:38.784Z,18.39
2023-04-10T10:48:08.334Z,19.89
2023-04-10T10:50:53.479Z,20.91
2023-04-10T10:53:34.796Z,19.29
2023-04-10T10:56:22.461Z,19.05
2023-04-10T10:58:54.591Z,18.39
2023-04-10T11:01:23.590Z,18.89
2023-04-10T11:03:52.279Z,19.40
2023-04-10T11:06:21.443Z,20.01
2023-04-10T11:08:52.901Z,19.62
2023-04-10T11:11:23.538Z,20.76
2023-04-10T11:14:11.167Z,20.87
2023-04-10T11:16:45.391Z,21.28
2023-04-10T11:19:15.809Z,20.75
2023-04-10T11:22:04.828Z,20.50
2023-04-10T11:24:52.240Z,18.79
2023-04-10T11:27:39.903Z,18.75
2023-04-10T11:30:23.486Z,18.79
2023-04-10T11:32:53.608Z,19.56
2023-04-10T11:35:22.303Z,19.09
2023-04-10T11:37:53.586Z,19.63
2023-04-10T11:40:22.032Z,20.10
2023-04-10T11:42:52.986Z,20.40
2023-04-10T11:45:26.438Z,20.31
2023-04-10T11:47:59.046Z,20.15
2023-04-10T11:50:33.097Z,18.86
2023-04-10T11:53:01.605Z,19.70
2023-04-10T11:55:39.267Z,19.92
2023-04-10T11:58:22.305Z,20.13
2023-04-10T12:01:00.468Z,19.72
2023-04-10T12:03:34.544Z,20.07
2023-04-10T12:06:04.786Z,20.40
2023-04-10T12:08:34.327Z,20.86
2023-04-10T12:11:04.234Z,20.63
2023-04-10T12:13:33.032Z,20.02
2023-04-10T12:16:07.698Z,20.12
2023-04-10T12:18:37.823Z,20.75
2023-04-10T12:21:08.159Z,20.58
2023-04-10T12:23:38.212Z,19.99
2023-04-10T12:26:13.172Z,20.41
2023-04-10T12:28:42.299Z,19.87
2023-04-10T12:31:10.867Z,20.00
2023-04-10T12:33:40.558Z,19.92
2023-04-10T12:36:20.622Z,19.40
2023-04-10T12:38:48.986Z,19.69
2023-04-10T12:41:22.566Z,19.64
2023-04-10T12:43:54.748Z,19.94
2023-04-10T12:46:26.791Z,20.75
2023-04-10T12:48:57.065Z,21.98
2023-04-10T12:51:44.904Z,21.44
2023-04-10T12:54:27.423Z,21.39
2023-04-10T12:56:56.129Z,21.65
2023-04-10T12:59:24.861Z,21.71
2023-04-10T13:01:53.154Z,21.14
2023-04-10T13:04:23.922Z,22.38
2023-04-10T13:06:53.178Z,22.14
2023-04-10T13:09:22.307Z,21.36
2023-04-10T13:11:52.813Z,20.77
2023-04-10T13:14:21.011Z,20.51
2023-04-10T13:16:53.816Z,20.31
2023-04-10T13:19:23.434Z,20.13
2023-04-10T13:21:51.934Z,19.34
2023-04-10T13:24:20.284Z,19.07
2023-04-10T13:26:48.517Z,18.62
2023-04-10T13:29:16.860Z,18.44
2023-04-10T13:31:45.191Z,18.40
2023-04-10T13:34:13.444Z,18.31
2023-04-10T13:36:43.381Z,18.66
2023-04-10T13:39:11.850Z,18.64
2023-04-10T13:41:40.265Z,19.21
2023-04-10T13:44:08.443Z,19.33
2023-04-10T13:46:37.117Z,18.64
2023-04-10T13:49:05.448Z,19.11
2023-04-10T13:51:33.768Z,19.16
2023-04-10T13:54:04.851Z,19.85
2023-04-10T13:56:33.242Z,19.61
2023-04-10T13:59:01.986Z,19.86
2023-04-10T14:01:30.441Z,19.15
2023-04-10T14:03:58.960Z,18.85
2023-04-10T14:06:28.529Z,18.93
2023-04-10T14:08:57.104Z,18.57
2023-04-10T14:11:27.074Z,18.68
2023-04-10T14:13:55.768Z,18.18
2023-04-10T14:16:24.341Z,17.94
2023-04-10T14:18:52.963Z,17.93
2023-04-10T14:21:22.801Z,18.08
2023-04-10T14:23:51.121Z,18.19
2023-04-10T14:26:19.523Z,17.83
2023-04-10T14:28:49.183Z,17.63
2023-04-10T14:31:17.726Z,17.52
2023-04-10T14:33:46.426Z,17.54
2023-04-10T14:36:15.214Z,17.60
2023-04-10T14:38:43.866Z,17.50
2023-04-10T14:41:12.624Z,17.20
2023-04-10T14:43:41.455Z,17.09
2023-04-10T14:46:15.092Z,17.04
2023-04-10T14:48:45.847Z,17.13
2023-04-10T14:51:14.469Z,17.14
2023-04-10T14:53:42.959Z,17.12
2023-04-10T14:56:12.337Z,17.03
2023-04-10T14:58:40.741Z,16.86
2023-04-10T15:01:09.976Z,16.89
2023-04-10T15:03:40.102Z,16.79
2023-04-10T15:06:08.909Z,16.83
2023-04-10T15:08:37.205Z,16.89
2023-04-10T15:11:06.071Z,16.89
2023-04-10T15:13:34.771Z,16.77
2023-04-10T15:16:03.161Z,16.57
2023-04-10T15:18:31.533Z,16.70
2023-04-10T15:21:01.352Z,16.64
2023-04-10T15:23:29.552Z,16.63
2023-04-10T15:25:57.774Z,16.67
2023-04-10T15:28:28.076Z,16.63
2023-04-10T15:30:57.711Z,16.68
2023-04-10T15:33:26.080Z,16.72
2023-04-10T15:35:54.483Z,16.76
2023-04-10T15:38:26.033Z,16.73
2023-04-10T15:40:54.476Z,16.78
2023-04-10T15:43:22.800Z,16.81
2023-04-10T15:45:51.285Z,16.81
2023-04-10T15:48:22.471Z,16.84
2023-04-10T15:50:50.833Z,16.90
2023-04-10T15:53:19.071Z,16.80
2023-04-10T15:55:48.664Z,16.89
2023-04-10T15:58:17.154Z,16.89
2023-04-10T16:00:45.453Z,16.96
2023-04-10T16:03:13.996Z,17.04
2023-04-10T16:05:42.382Z,17.20
2023-04-10T16:08:10.752Z,17.22
2023-04-10T16:10:39.052Z,17.33
2023-04-10T16:13:08.791Z,17.28
2023-04-10T16:15:37.881Z,17.33
2023-04-10T16:18:07.618Z,17.36
2023-04-10T16:20:36.021Z,17.20
2023-04-10T16:23:04.406Z,17.15
2023-04-10T16:25:32.622Z,17.22
2023-04-10T16:28:02.252Z,17.38
2023-04-10T16:30:32.034Z,17.40
2023-04-10T16:33:00.284Z,17.32
2023-04-10T16:35:28.615Z,17.05
2023-04-10T16:37:56.936Z,16.86
2023-04-10T16:40:27.631Z,16.80
2023-04-10T16:42:56.248Z,16.73
2023-04-10T16:45:24.533Z,16.72
2023-04-10T16:47:54.169Z,16.66
2023-04-10T16:50:22.629Z,16.50
2023-04-10T16:52:50.894Z,16.42
2023-04-10T16:55:19.313Z,16.45
2023-04-10T16:57:47.719Z,16.36
2023-04-10T17:00:16.267Z,16.22
2023-04-10T17:02:44.682Z,16.07
2023-04-10T17:05:14.750Z,15.77
2023-04-10T17:07:44.520Z,15.58
2023-04-10T17:10:13.552Z,15.29
2023-04-10T17:12:42.378Z,14.80
2023-04-10T17:15:11.132Z,14.18
2023-04-10T17:17:39.384Z,13.81
2023-04-10T17:20:09.704Z,13.69
2023-04-10T17:22:40.687Z,13.34
2023-04-10T17:25:09.506Z,13.11
2023-04-10T17:27:40.306Z,12.91
2023-04-10T17:30:12.092Z,12.93
2023-04-10T17:32:41.807Z,12.57
2023-04-10T17:35:10.291Z,12.32
2023-04-10T17:37:39.897Z,12.05
2023-04-10T17:40:08.801Z,12.03
2023-04-10T17:42:37.318Z,11.80
2023-04-10T17:45:06.285Z,11.61
2023-04-10T17:47:34.689Z,11.48
2023-04-10T17:50:03.122Z,11.38
2023-04-10T17:52:31.432Z,11.35
2023-04-10T17:55:02.222Z,11.11
2023-04-10T17:57:30.635Z,10.92
2023-04-10T17:59:59.048Z,10.84
2023-04-10T18:02:27.786Z,10.92
2023-04-10T18:04:57.018Z,10.73
2023-04-10T18:07:25.265Z,10.66
2023-04-10T18:09:54.176Z,10.78
2023-04-10T18:12:23.747Z,10.78
2023-04-10T18:14:52.168Z,10.90
2023-04-10T18:17:20.450Z,10.82
2023-04-10T18:19:48.754Z,10.89
2023-04-10T18:22:17.427Z,10.90
2023-04-10T18:24:47.110Z,10.95
2023-04-10T18:27:15.682Z,11.00
2023-04-10T18:29:46.347Z,11.20
2023-04-10T18:32:14.877Z,11.17
2023-04-10T18:34:43.150Z,10.94
2023-04-10T18:37:11.884Z,10.82
2023-04-10T18:39:40.697Z,10.85
2023-04-10T18:42:10.634Z,10.79
2023-04-10T18:44:39.186Z,10.61
2023-04-10T18:47:10.864Z,10.73
2023-04-10T18:49:39.712Z,10.53
2023-04-10T18:52:08.567Z,10.58
2023-04-10T18:54:37.878Z,10.33
2023-04-10T18:57:07.346Z,10.38
2023-04-10T18:59:38.051Z,10.28
2023-04-10T19:02:08.841Z,10.28
2023-04-10T19:04:58.617Z,10.37
2023-04-10T19:07:27.517Z,10.35
2023-04-10T19:09:55.909Z,10.32
2023-04-10T19:12:24.407Z,10.45
2023-04-10T19:14:53.210Z,10.45
2023-04-10T19:17:24.728Z,10.60
2023-04-10T19:19:53.876Z,10.38
2023-04-10T19:22:23.674Z,10.41
2023-04-10T19:24:52.153Z,10.42
2023-04-10T19:27:20.507Z,10.35
2023-04-10T19:29:48.822Z,10.42
2023-04-10T19:32:17.404Z,10.40
2023-04-10T19:34:51.058Z,10.36
2023-04-10T19:37:20.226Z,10.32
2023-04-10T19:39:49.811Z,10.44
2023-04-10T19:42:18.028Z,10.41
2023-04-10T19:44:46.551Z,10.31
2023-04-10T19:47:14.781Z,10.21
2023-04-10T19:49:43.086Z,10.16
2023-04-10T19:52:13.720Z,10.09
2023-04-10T19:54:42.186Z,10.03
2023-04-10T19:57:12.109Z,10.03
2023-04-10T19:59:40.309Z,9.94
2023-04-10T20:02:10.279Z,9.94
2023-04-10T20:04:38.848Z,9.84
2023-04-10T20:07:07.293Z,9.82
2023-04-10T20:09:35.675Z,9.71
2023-04-10T20:12:04.107Z,9.67
2023-04-10T20:14:33.634Z,9.66
2023-04-10T20:17:03.361Z,9.63
2023-04-10T20:19:31.817Z,9.58
2023-04-10T20:22:02.245Z,9.61
2023-04-10T20:24:30.970Z,9.54
2023-04-10T20:26:59.416Z,9.39
2023-04-10T20:29:27.727Z,9.42
2023-04-10T20:31:57.647Z,9.42
2023-04-10T20:34:25.933Z,9.42
2023-04-10T20:36:54.163Z,9.34
2023-04-10T20:39:24.121Z,9.34
2023-04-10T20:41:52.449Z,9.30
2023-04-10T20:44:20.776Z,9.28
2023-04-10T20:46:50.249Z,9.19
2023-04-10T20:49:19.979Z,9.25
2023-04-10T20:51:48.313Z,9.14
2023-04-10T20:54:18.836Z,9.13
2023-04-10T20:56:47.228Z,9.20
2023-04-10T20:59:15.579Z,9.18
2023-04-10T21:01:43.933Z,9.16
2023-04-10T21:04:12.618Z,9.18
2023-04-10T21:06:42.292Z,9.24
2023-04-10T21:09:10.824Z,9.18
2023-04-10T21:11:40.699Z,9.05
2023-04-10T21:14:08.895Z,8.99
2023-04-10T21:16:42.189Z,8.81
2023-04-10T21:19:11.172Z,8.75
2023-04-10T21:21:39.760Z,8.74
2023-04-10T21:24:09.384Z,8.70
2023-04-10T21:26:40.649Z,8.61
2023-04-10T21:29:08.981Z,8.57
2023-04-10T21:31:37.559Z,8.45
2023-04-10T21:34:05.845Z,8.43
2023-04-10T21:36:34.764Z,8.39
2023-04-10T21:39:03.176Z,8.44
2023-04-10T21:41:34.605Z,8.50
2023-04-10T21:44:03.275Z,8.46
2023-04-10T21:46:31.803Z,8.46
2023-04-10T21:49:00.289Z,8.48
2023-04-10T21:51:28.563Z,8.53
2023-04-10T21:53:56.775Z,8.49
2023-04-10T21:56:25.804Z,8.53
2023-04-10T21:58:55.970Z,8.52
2023-04-10T22:01:24.440Z,8.62
2023-04-10T22:03:53.973Z,8.53
2023-04-10T22:06:22.504Z,8.47
2023-04-10T22:08:50.702Z,8.44
2023-04-10T22:11:19.038Z,8.35
2023-04-10T22:13:47.323Z,8.37
2023-04-10T22:16:17.006Z,8.37
2023-04-10T22:18:45.246Z,8.40
2023-04-10T22:21:14.238Z,8.42
2023-04-10T22:23:42.694Z,8.42
2023-04-10T22:26:10.987Z,8.42
2023-04-10T22:28:39.459Z,8.40
2023-04-10T22:31:07.884Z,8.50
2023-04-10T22:33:37.919Z,8.42
2023-04-10T22:36:06.374Z,8.47
2023-04-10T22:38:34.643Z,8.43
2023-04-10T22:41:03.021Z,8.34
2023-04-10T22:43:31.351Z,8.36
2023-04-10T22:45:59.691Z,8.42
2023-04-10T22:48:27.910Z,8.42
2023-04-10T22:50:57.601Z,8.34
2023-04-10T22:53:25.901Z,8.33
2023-04-10T22:55:54.171Z,8.28
2023-04-10T22:58:22.423Z,8.21
2023-04-10T23:00:50.747Z,8.17
2023-04-10T23:03:19.115Z,8.04
2023-04-10T23:05:47.870Z,7.97
2023-04-10T23:08:17.591Z,7.99
2023-04-10T23:10:46.029Z,7.97
2023-04-10T23:13:14.436Z,7.95
2023-04-10T23:15:48.842Z,8.08
2023-04-10T23:18:26.497Z,8.20
2023-04-10T23:20:54.720Z,8.37
2023-04-10T23:23:24.248Z,8.39
2023-04-10T23:25:57.603Z,8.45
2023-04-10T23:28:25.902Z,8.43
2023-04-10T23:30:54.269Z,8.59
2023-04-10T23:33:22.479Z,8.62
2023-04-10T23:35:50.715Z,8.63
2023-04-10T23:38:19.052Z,8.59
2023-04-10T23:40:48.759Z,8.67
2023-04-10T23:43:16.933Z,8.62
2023-04-10T23:45:45.280Z,8.61
2023-04-10T23:48:13.471Z,8.62
2023-04-10T23:50:41.845Z,8.66
2023-04-10T23:53:10.227Z,8.69
2023-04-10T23:55:39.715Z,8.73
2023-04-10T23:58:10.034Z,8.71
